Time;durP1;ratioP1;P1;durP2;ratioP2;P2;SDS_P1;SDS_P2;PMS_P1;PMS_P2;Temp;Humidity;BMP_temperature;BMP_pressure;BME280_temperature;BME280_humidity;BME280_pressure;Samples;Min_cycle;Max_cycle;Signal;HPM_P1;HPM_P2
2022/05/05 00:01:18;;;;;;;4.93;2.42;;;;;;;1.19;68.65;100302.44;5137039;27;20049;-81
2022/05/05 00:03:47;;;;;;;9.52;2.85;;;;;;;1.27;68.55;100323.38;5135392;27;20051;-82
2022/05/05 00:06:16;;;;;;;4.97;2.65;;;;;;;1.29;68.84;100342.34;5136097;27;20043;-82
2022/05/05 00:08:43;;;;;;;4.38;2.78;;;;;;;1.25;68.80;100335.28;5134741;27;20422;-81
2022/05/05 00:16:47;;;;;;;6.00;2.70;;;;;;;1.17;69.32;100348.66;5145868;27;20059;-82
2022/05/05 00:19:15;;;;;;;6.20;3.50;;;;;;;1.27;68.82;100370.59;5147107;27;20043;-82
2022/05/05 00:21:43;;;;;;;5.63;2.77;;;;;;;1.24;69.39;100380.72;5152703;27;20027;-82
2022/05/05 00:24:12;;;;;;;4.55;2.72;;;;;;;1.23;69.31;100387.56;5159027;27;20035;-81
2022/05/05 00:26:40;;;;;;;5.90;2.90;;;;;;;1.22;69.08;100378.06;5149586;27;20051;-82
2022/05/05 00:29:08;;;;;;;5.40;2.90;;;;;;;1.13;69.31;100371.59;5134402;27;20055;-80
2022/05/05 00:31:37;;;;;;;8.23;3.53;;;;;;;0.91;69.10;100325.94;5133945;27;20051;-81
2022/05/05 00:34:06;;;;;;;6.22;3.30;;;;;;;1.21;69.53;100385.75;5134129;27;20285;-81
2022/05/05 00:36:33;;;;;;;5.35;3.10;;;;;;;1.19;69.78;100384.78;5133975;27;20154;-80
2022/05/05 00:39:02;;;;;;;8.73;3.90;;;;;;;1.22;69.38;100379.75;5133815;27;20495;-83
2022/05/05 00:41:33;;;;;;;7.50;3.53;;;;;;;1.20;69.70;100381.38;5134005;27;20047;-82
2022/05/05 00:44:02;;;;;;;5.75;3.03;;;;;;;1.15;69.70;100370.00;5133597;27;20059;-83
2022/05/05 00:46:31;;;;;;;7.00;3.13;;;;;;;1.18;69.82;100386.47;5134261;27;20066;-84
2022/05/05 00:49:01;;;;;;;5.07;3.10;;;;;;;1.10;69.30;100380.06;5134262;28;20058;-83
2022/05/05 00:51:32;;;;;;;6.82;2.85;;;;;;;1.14;69.75;100404.22;5132576;28;20122;-82
2022/05/05 00:53:59;;;;;;;7.13;3.08;;;;;;;0.84;69.69;100349.56;5133768;28;20061;-83
2022/05/05 00:56:29;;;;;;;5.20;2.88;;;;;;;1.02;69.87;100383.94;5136128;27;20099;-83
2022/05/05 00:58:58;;;;;;;6.30;3.00;;;;;;;1.02;69.67;100386.50;5137957;27;20047;-84
2022/05/05 01:01:34;;;;;;;6.30;2.85;;;;;;;1.11;69.85;100404.97;5138572;27;20051;-83
2022/05/05 01:04:02;;;;;;;;;;;;;;;0.98;69.48;100402.59;5121071;27;20579;-82
2022/05/05 01:06:30;;;;;;;4.32;2.58;;;;;;;1.04;70.05;100404.59;5146011;27;19927;-82
2022/05/05 01:09:05;;;;;;;6.05;2.63;;;;;;;1.07;69.85;100418.50;5150681;27;20058;-81
2022/05/05 01:11:34;;;;;;;6.88;2.55;;;;;;;1.08;69.86;100421.97;5137777;27;20070;-82
2022/05/05 01:14:01;;;;;;;4.20;2.70;;;;;;;1.09;69.87;100428.88;5138117;27;20058;-84
2022/05/05 01:16:31;;;;;;;4.55;2.60;;;;;;;1.02;70.23;100405.41;5137883;27;20043;-84
2022/05/05 01:18:58;;;;;;;5.22;2.67;;;;;;;1.09;69.92;100421.16;5138647;27;20051;-82
2022/05/05 01:21:27;;;;;;;3.75;2.78;;;;;;;0.84;69.87;100367.56;5138339;27;20063;-83
2022/05/05 01:23:56;;;;;;;3.95;2.50;;;;;;;1.07;70.33;100421.06;5137825;27;20055;-84
2022/05/05 01:29:12;;;;;;;4.43;2.58;;;;;;;0.79;70.32;100377.63;5138068;27;20089;-83
2022/05/05 01:31:43;;;;;;;6.38;2.75;;;;;;;0.98;70.43;100431.78;5136148;27;20055;-82
2022/05/05 01:34:10;;;;;;;5.00;2.72;;;;;;;1.05;70.35;100444.94;5136332;27;20473;-81
2022/05/05 01:36:39;;;;;;;4.57;2.42;;;;;;;0.69;70.22;100395.97;5136083;27;20134;-84
2022/05/05 01:39:08;;;;;;;6.68;2.83;;;;;;;0.98;70.33;100436.03;5137497;27;20051;-84
2022/05/05 01:41:36;;;;;;;6.32;2.65;;;;;;;0.85;70.24;100408.81;5118883;27;20047;-83
2022/05/05 01:44:05;;;;;;;2.85;2.10;;;;;;;1.01;70.18;100424.22;5137177;27;20051;-84
2022/05/05 01:46:32;;;;;;;4.90;2.67;;;;;;;1.20;69.82;100464.63;5137319;27;20058;-82
2022/05/05 01:49:00;;;;;;;5.15;2.70;;;;;;;1.13;69.74;100457.41;5137060;27;20055;-84
2022/05/05 01:51:28;;;;;;;3.50;2.63;;;;;;;1.11;69.92;100453.00;5136502;27;20055;-84
2022/05/05 01:53:57;;;;;;;2.87;2.57;;;;;;;0.97;69.95;100401.72;5136256;27;20149;-84
2022/05/05 01:56:23;;;;;;;3.70;2.50;;;;;;;1.28;69.53;100451.28;5139174;27;20078;-82
2022/05/05 01:58:50;;;;;;;2.28;2.08;;;;;;;1.40;69.87;100462.19;5144374;27;20054;-81
2022/05/05 02:01:19;;;;;;;3.50;2.33;;;;;;;1.40;68.99;100473.34;5135515;27;20043;-83
2022/05/05 02:03:48;;;;;;;5.07;2.53;;;;;;;1.24;68.76;100445.06;5135475;27;20044;-82
2022/05/05 02:06:17;;;;;;;5.53;2.35;;;;;;;1.51;68.89;100475.59;5137045;27;20419;-81
2022/05/05 02:08:45;;;;;;;4.00;2.80;;;;;;;1.56;68.85;100487.00;5135565;27;20153;-81
2022/05/05 02:11:13;;;;;;;3.92;2.42;;;;;;;1.60;68.24;100492.34;5136787;27;20412;-82
2022/05/05 02:13:42;;;;;;;4.32;2.30;;;;;;;1.62;68.22;100490.75;5136952;27;20043;-82
2022/05/05 02:16:10;;;;;;;3.67;2.60;;;;;;;1.67;67.89;100496.13;5136755;27;20572;-83
2022/05/05 02:18:37;;;;;;;3.65;2.50;;;;;;;1.75;67.63;100505.13;5137447;27;20058;-82
2022/05/05 02:21:06;;;;;;;3.65;1.95;;;;;;;1.77;67.85;100497.47;5137965;27;20051;-82
2022/05/05 02:23:34;;;;;;;3.27;2.70;;;;;;;1.83;67.23;100505.50;5137138;27;20435;-84
2022/05/05 02:26:02;;;;;;;4.90;2.40;;;;;;;1.82;67.26;100490.84;5140966;27;20288;-82
2022/05/05 02:28:31;;;;;;;3.40;2.53;;;;;;;1.99;66.85;100510.56;5140853;27;20108;-82
2022/05/05 02:31:00;;;;;;;2.60;2.35;;;;;;;2.08;66.77;100523.00;5136817;27;20143;-84
2022/05/05 02:33:28;;;;;;;5.70;2.35;;;;;;;2.01;66.43;100492.59;5135585;27;20051;-82
2022/05/05 02:38:43;;;;;;;5.20;2.63;;;;;;;2.33;65.87;100529.34;5136021;27;20051;-83
2022/05/05 02:41:11;;;;;;;4.38;2.45;;;;;;;2.45;65.35;100524.72;5134628;27;20066;-82
2022/05/05 02:43:38;;;;;;;3.95;2.40;;;;;;;2.49;64.94;100503.44;5136884;27;20427;-81
2022/05/05 02:46:05;;;;;;;4.25;3.00;;;;;;;2.49;64.47;100459.59;5138409;27;20046;-82
2022/05/05 02:48:34;;;;;;;3.40;2.70;;;;;;;3.63;62.50;100503.22;5139635;27;20055;-82
2022/05/05 02:51:02;;;;;;;6.05;2.40;;;;;;;6.55;55.46;100483.41;5137574;27;20051;-82
2022/05/05 02:56:18;;;;;;;2.80;2.40;;;;;;;11.73;42.87;100499.44;5136457;27;20058;-84
2022/05/05 02:58:45;;;;;;;3.38;2.50;;;;;;;13.27;39.30;100489.00;5137750;27;20047;-84
2022/05/05 03:01:13;;;;;;;2.60;2.25;;;;;;;14.32;36.83;100471.50;5142158;27;20083;-83
2022/05/05 03:03:43;;;;;;;2.80;2.20;;;;;;;15.54;34.47;100498.16;5137040;27;20145;-82
2022/05/05 03:06:11;;;;;;;2.40;1.83;;;;;;;16.28;32.97;100497.59;5138183;27;20133;-84
2022/05/05 03:08:38;;;;;;;2.78;2.03;;;;;;;16.84;31.55;100510.19;5134922;27;20059;-83
2022/05/05 03:11:07;;;;;;;3.22;2.35;;;;;;;17.09;30.54;100457.97;5135232;27;20055;-82
2022/05/05 03:13:36;;;;;;;2.85;2.38;;;;;;;17.84;29.27;100507.03;5146376;27;20043;-84
2022/05/05 03:16:04;;;;;;;4.30;2.40;;;;;;;18.05;28.78;100492.59;5143377;27;20055;-85
2022/05/05 03:18:33;;;;;;;3.10;2.35;;;;;;;18.73;27.88;100497.47;5153009;27;20051;-85
2022/05/05 03:21:02;;;;;;;2.30;2.10;;;;;;;19.68;26.49;100510.47;5135443;27;20508;-86
2022/05/05 03:23:30;;;;;;;5.63;2.28;;;;;;;20.12;25.40;100471.38;5136043;27;20100;-86
2022/05/05 03:25:59;;;;;;;3.70;2.13;;;;;;;20.65;24.63;100516.84;5135109;27;20460;-86
2022/05/05 03:28:27;;;;;;;4.47;2.10;;;;;;;20.50;24.64;100493.38;5146681;27;20059;-85
2022/05/05 03:30:55;;;;;;;3.17;2.60;;;;;;;21.07;24.00;100521.84;5152950;27;20051;-86
2022/05/05 03:33:25;;;;;;;2.92;2.50;;;;;;;21.19;23.47;100512.66;5140723;27;20108;-86
2022/05/05 03:35:53;;;;;;;2.60;2.33;;;;;;;22.19;22.44;100528.06;5140911;27;20057;-86
2022/05/05 03:38:21;;;;;;;3.38;2.38;;;;;;;22.50;21.60;100508.44;5150342;27;20054;-86
2022/05/05 03:40:50;;;;;;;3.20;2.60;;;;;;;22.67;21.22;100489.16;5157727;27;20058;-84
2022/05/05 03:43:19;;;;;;;3.92;2.47;;;;;;;22.69;21.08;100514.81;5165896;27;20026;-85
2022/05/05 03:45:46;;;;;;;3.95;2.70;;;;;;;23.25;20.92;100524.31;5179784;27;20035;-84
2022/05/05 03:48:15;;;;;;;3.03;2.50;;;;;;;23.37;20.19;100522.09;5167866;27;20136;-87
2022/05/05 03:50:43;;;;;;;4.13;2.90;;;;;;;23.16;20.51;100534.44;5155023;27;20450;-88
2022/05/05 03:53:12;;;;;;;5.15;2.40;;;;;;;21.78;21.64;100543.63;5137913;27;20510;-87
2022/05/05 03:55:39;;;;;;;5.15;2.70;;;;;;;18.55;25.21;100546.34;5138872;27;20085;-86
2022/05/05 03:58:06;;;;;;;4.55;2.38;;;;;;;15.80;28.47;100562.09;5157008;27;20053;-87
2022/05/05 04:00:33;;;;;;;3.10;2.60;;;;;;;13.79;31.47;100548.59;5149113;27;20060;-86
2022/05/05 04:05:49;;;;;;;4.75;2.90;;;;;;;12.49;33.87;100565.53;5153694;27;20033;-82
2022/05/05 04:08:16;;;;;;;5.20;2.50;;;;;;;11.62;34.59;100531.63;5137867;27;20043;-83
2022/05/05 04:10:44;;;;;;;3.97;2.90;;;;;;;11.18;36.17;100584.31;5134547;27;20051;-84
2022/05/05 04:13:13;;;;;;;4.55;2.85;;;;;;;10.85;36.40;100575.19;5135397;27;20047;-79
2022/05/05 04:15:41;;;;;;;4.28;2.70;;;;;;;10.77;37.22;100586.38;5133967;27;20146;-81
2022/05/05 04:18:08;;;;;;;5.07;2.90;;;;;;;10.57;37.57;100601.78;5132789;27;20134;-83
2022/05/05 04:23:27;;;;;;;4.60;2.60;;;;;;;10.39;37.60;100597.13;5123678;27;20507;-80
2022/05/05 04:26:11;;;;;;;5.13;2.72;;;;;;;9.70;38.13;100564.63;5120592;27;20075;-84
2022/05/05 04:29:08;;;;;;;5.90;2.42;;;;;;;8.97;39.12;100513.72;5136010;27;20051;-85
2022/05/05 04:32:19;;;;;;;6.63;2.85;;;;;;;9.35;38.66;100517.91;5118182;27;20062;-86
2022/05/05 04:34:50;;;;;;;6.75;2.80;;;;;;;9.40;38.82;100538.00;5134232;27;20078;-87
2022/05/05 04:37:22;;;;;;;3.97;2.55;;;;;;;9.54;39.38;100611.28;5139506;27;20049;-86
2022/05/05 04:39:52;;;;;;;4.70;2.60;;;;;;;9.37;39.01;100571.84;5129101;27;20069;-83
2022/05/05 04:42:21;;;;;;;;;;;;;;;9.46;39.13;100606.78;5136806;27;20059;-83
2022/05/05 04:44:48;;;;;;;8.73;2.92;;;;;;;9.65;38.62;100601.06;5132279;27;19923;-83
2022/05/05 04:47:16;;;;;;;1.60;1.50;;;;;;;9.46;38.73;100630.25;5137535;27;20111;-87
2022/05/05 04:49:44;;;;;;;2.10;1.67;;;;;;;8.87;39.23;100622.91;5117467;28;20055;-84
2022/05/05 04:52:13;;;;;;;3.10;1.90;;;;;;;8.57;39.90;100616.16;5134533;28;20128;-84
2022/05/05 04:54:40;;;;;;;1.95;1.30;;;;;;;8.52;39.67;100626.47;5136818;28;20055;-82
2022/05/05 04:57:07;;;;;;;4.47;1.85;;;;;;;8.21;39.73;100590.97;5134967;27;20051;-82
2022/05/05 04:59:34;;;;;;;3.33;1.70;;;;;;;8.42;39.76;100626.22;5136660;28;20051;-84
2022/05/05 05:02:02;;;;;;;4.63;1.92;;;;;;;8.48;39.96;100632.44;5143623;28;20523;-84
2022/05/05 05:04:30;;;;;;;4.03;2.05;;;;;;;8.59;39.54;100638.78;5142791;28;20055;-86
2022/05/05 05:06:58;;;;;;;6.90;3.20;;;;;;;8.80;39.88;100650.56;5145480;28;20056;-85
2022/05/05 05:09:26;;;;;;;6.85;3.40;;;;;;;8.62;39.54;100604.13;5147129;27;20070;-86
2022/05/05 05:11:55;;;;;;;2.80;1.73;;;;;;;8.93;39.12;100636.97;5148747;27;20057;-89
2022/05/05 05:14:22;;;;;;;3.40;1.90;;;;;;;8.67;38.32;100584.28;5151355;28;20496;-90
2022/05/05 05:16:51;;;;;;;2.92;1.83;;;;;;;8.68;38.00;100593.84;5154497;28;20047;-87
2022/05/05 05:19:20;;;;;;;2.47;1.75;;;;;;;8.97;37.82;100638.78;5151556;28;20146;-87
2022/05/05 05:21:48;;;;;;;2.65;1.63;;;;;;;8.51;37.90;100645.53;5139642;28;20392;-85
2022/05/05 05:24:17;;;;;;;5.88;2.20;;;;;;;8.43;38.44;100660.06;5135485;28;20397;-85
2022/05/05 05:26:45;;;;;;;5.70;1.63;;;;;;;8.45;38.41;100647.97;5148355;28;20055;-87
2022/05/05 05:29:13;;;;;;;2.40;1.88;;;;;;;8.41;37.62;100633.16;5139484;28;20057;-89
2022/05/05 05:31:42;;;;;;;1.77;1.45;;;;;;;8.14;38.29;100555.22;5135498;28;20078;-91
2022/05/05 05:34:18;;;;;;;3.15;1.88;;;;;;;8.81;37.05;100600.22;5118045;27;20043;-86
2022/05/05 05:36:46;;;;;;;1.77;1.67;;;;;;;9.28;36.55;100649.00;5134591;27;20102;-87
2022/05/05 05:39:13;;;;;;;2.17;1.85;;;;;;;9.43;35.90;100644.09;5140335;28;20039;-89
2022/05/05 05:41:40;;;;;;;2.35;1.65;;;;;;;9.41;35.98;100646.66;5121204;27;20077;-85
2022/05/05 05:44:08;;;;;;;1.92;1.70;;;;;;;9.87;35.39;100643.19;5137409;27;20054;-86
2022/05/05 05:46:35;;;;;;;2.38;1.63;;;;;;;9.28;34.25;100534.28;5137271;27;20059;-86
2022/05/05 05:49:02;;;;;;;3.00;1.23;;;;;;;9.99;33.87;100662.56;5137334;27;20051;-85
2022/05/05 05:51:32;;;;;;;2.40;1.65;;;;;;;9.21;35.12;100653.22;5119862;27;20509;-85
2022/05/05 05:53:59;;;;;;;1.40;1.30;;;;;;;8.69;35.84;100632.09;5136055;27;20452;-84
2022/05/05 05:56:26;;;;;;;6.18;1.33;;;;;;;8.90;35.26;100669.88;5137735;27;20051;-86
2022/05/05 05:58:53;;;;;;;2.42;1.40;;;;;;;8.69;35.37;100685.88;5138527;27;20047;-85
2022/05/05 06:03:53;;;;;;;1.58;1.23;;;;;;;8.73;35.75;100687.72;5136401;27;20092;-83
2022/05/05 06:04:09;;;;;;;4.97;1.67;;;;;;;8.90;35.36;100654.25;5147488;27;20048;-82
2022/05/05 06:06:36;;;;;;;1.67;1.30;;;;;;;9.10;34.41;100718.13;5146784;27;20047;-82
2022/05/05 06:09:04;;;;;;;2.60;1.23;;;;;;;8.56;34.03;100687.31;5144296;27;20047;-81
2022/05/05 06:11:31;;;;;;;3.05;1.17;;;;;;;8.67;34.09;100691.06;5144235;27;20055;-82
2022/05/05 06:13:58;;;;;;;2.30;1.20;;;;;;;8.77;31.76;100690.44;5145184;27;20055;-83
2022/05/05 06:16:25;;;;;;;2.15;0.93;;;;;;;8.63;32.60;100649.28;5136677;27;20102;-81
2022/05/05 06:18:52;;;;;;;2.70;1.40;;;;;;;8.91;32.79;100682.94;5137196;27;20081;-82
2022/05/05 06:21:20;;;;;;;1.35;1.25;;;;;;;8.86;32.29;100624.63;5140887;27;20586;-86
2022/05/05 06:23:49;;;;;;;2.85;1.02;;;;;;;9.31;32.13;100696.84;5136001;27;20488;-87
2022/05/05 06:26:16;;;;;;;3.22;1.20;;;;;;;9.18;31.22;100720.91;5138013;27;20076;-81
2022/05/05 06:28:43;;;;;;;2.90;1.02;;;;;;;8.67;31.69;100706.69;5134764;27;20043;-80
2022/05/05 06:31:11;;;;;;;1.15;1.00;;;;;;;8.94;31.43;100695.16;5137248;27;20039;-83
2022/05/05 06:33:38;;;;;;;1.17;1.00;;;;;;;8.80;32.20;100666.19;5135268;27;20047;-84
2022/05/05 06:36:05;;;;;;;3.55;1.50;;;;;;;8.51;31.97;100668.09;5133152;27;20054;-81
2022/05/05 06:38:32;;;;;;;1.98;1.00;;;;;;;8.70;31.78;100688.53;5136931;27;20059;-82
2022/05/05 06:41:00;;;;;;;3.83;1.50;;;;;;;8.71;32.43;100713.75;5137817;27;20055;-84
2022/05/05 06:43:29;;;;;;;2.40;1.10;;;;;;;9.25;31.28;100667.16;5136617;27;20047;-83
2022/05/05 06:45:56;;;;;;;2.50;1.20;;;;;;;9.83;30.42;100697.09;5142809;27;20072;-83
2022/05/05 06:48:25;;;;;;;3.53;1.30;;;;;;;9.82;30.50;100695.31;5156616;27;20049;-82
2022/05/05 06:50:53;;;;;;;1.42;0.95;;;;;;;9.90;29.40;100703.31;5152434;27;20043;-81
2022/05/05 06:53:23;;;;;;;1.20;0.80;;;;;;;9.83;29.42;100691.88;5147750;27;20051;-83
2022/05/05 06:55:55;;;;;;;3.88;1.00;;;;;;;9.40;28.74;100671.00;5119305;27;20081;-81
2022/05/05 06:58:23;;;;;;;3.35;1.17;;;;;;;9.18;28.42;100700.94;5152621;27;20438;-81
2022/05/05 07:03:39;;;;;;;2.65;0.98;;;;;;;9.36;29.69;100726.53;5145195;27;20138;-83
2022/05/05 07:06:10;;;;;;;3.85;1.33;;;;;;;9.47;29.13;100692.88;5152778;27;20073;-83
2022/05/05 07:11:26;;;;;;;2.00;1.15;;;;;;;9.56;28.27;100726.97;5155160;27;20043;-83
2022/05/05 07:13:54;;;;;;;2.70;0.90;;;;;;;9.17;28.41;100711.34;5153172;27;20057;-85
2022/05/05 07:16:21;;;;;;;1.88;0.88;;;;;;;9.10;28.20;100728.56;5139068;27;20047;-84
2022/05/05 07:18:51;;;;;;;2.70;1.00;;;;;;;9.06;27.83;100676.34;5137544;27;20154;-82
2022/05/05 07:21:20;;;;;;;4.40;1.83;;;;;;;9.25;28.56;100701.06;5143997;27;20572;-83
2022/05/05 07:23:48;;;;;;;6.28;2.22;;;;;;;9.27;28.27;100669.00;5134973;27;20400;-82
2022/05/05 07:26:17;;;;;;;2.92;1.75;;;;;;;9.73;27.49;100740.38;5133949;27;20043;-82
2022/05/05 07:28:45;;;;;;;3.22;1.08;;;;;;;9.59;27.61;100721.81;5135198;27;20081;-83
2022/05/05 07:31:11;;;;;;;2.70;1.35;;;;;;;9.41;26.71;100690.13;5135276;27;20043;-83
2022/05/05 07:33:38;;;;;;;4.35;1.48;;;;;;;9.45;27.42;100696.31;5155014;27;20050;-83
2022/05/05 07:36:06;;;;;;;3.45;1.20;;;;;;;9.58;27.11;100732.22;5156841;27;20059;-83
2022/05/05 07:38:35;;;;;;;2.05;1.00;;;;;;;9.37;27.02;100722.19;5159947;27;20050;-82
2022/05/05 07:41:03;;;;;;;1.90;1.52;;;;;;;9.38;26.90;100726.59;5155862;27;20063;-83
2022/05/05 07:43:32;;;;;;;4.68;1.85;;;;;;;9.05;26.98;100695.41;5155632;27;20043;-83
2022/05/05 07:45:59;;;;;;;2.28;1.60;;;;;;;9.19;27.52;100718.34;5147272;27;20092;-85
2022/05/05 07:48:26;;;;;;;3.28;1.95;;;;;;;9.07;27.61;100685.91;5143350;27;20389;-81
2022/05/05 07:50:53;;;;;;;5.38;3.50;;;;;;;9.37;26.64;100737.84;5112295;28;20523;-82
2022/05/05 07:53:20;;;;;;;6.72;3.40;;;;;;;9.48;27.22;100718.09;5112963;28;20056;-84
2022/05/05 07:55:47;;;;;;;4.47;2.53;;;;;;;9.55;26.94;100699.13;5133302;27;20076;-83
2022/05/05 07:58:14;;;;;;;4.10;2.38;;;;;;;9.52;27.34;100709.47;5133754;27;20054;-82
2022/05/05 08:00:41;;;;;;;1.58;1.25;;;;;;;9.57;26.72;100744.38;5136744;27;20063;-82
2022/05/05 08:03:08;;;;;;;1.95;1.23;;;;;;;9.13;26.83;100718.19;5134386;27;20078;-83
2022/05/05 08:05:36;;;;;;;2.65;1.10;;;;;;;9.05;26.96;100713.66;5133692;27;20481;-82
2022/05/05 08:08:04;;;;;;;1.92;1.35;;;;;;;9.11;26.81;100745.06;5134511;27;20419;-82
2022/05/05 08:10:31;;;;;;;1.20;1.00;;;;;;;9.13;26.60;100746.88;5140063;27;20460;-82
2022/05/05 08:12:59;;;;;;;1.73;1.38;;;;;;;8.89;26.80;100681.16;5138932;27;20046;-83
2022/05/05 08:15:26;;;;;;;3.53;1.35;;;;;;;9.38;26.46;100718.75;5119715;27;20419;-84
2022/05/05 08:17:53;;;;;;;3.08;1.48;;;;;;;9.39;26.66;100737.03;5152834;27;20043;-83
2022/05/05 08:20:20;;;;;;;3.45;1.40;;;;;;;9.09;26.70;100712.88;5170095;27;20104;-85
2022/05/05 08:22:47;;;;;;;2.50;1.30;;;;;;;9.14;27.17;100739.91;5135422;27;20051;-84
2022/05/05 08:30:47;;;;;;;1.95;1.30;;;;;;;9.16;27.07;100741.75;5153279;27;20052;-84
2022/05/05 08:33:14;;;;;;;4.28;1.35;;;;;;;9.25;26.70;100727.13;5130228;27;20149;-83
2022/05/05 08:35:42;;;;;;;6.07;3.15;;;;;;;9.34;26.69;100711.72;5133064;27;20051;-85
2022/05/05 08:38:09;;;;;;;6.07;3.30;;;;;;;9.50;26.58;100687.69;5135286;27;20062;-84
2022/05/05 08:40:40;;;;;;;2.20;1.15;;;;;;;9.81;26.20;100719.66;5137820;27;20070;-82
2022/05/05 08:43:10;;;;;;;5.22;2.10;;;;;;;9.73;25.81;100736.88;5143037;27;20051;-81
2022/05/05 08:45:38;;;;;;;2.13;1.33;;;;;;;9.48;26.57;100707.66;5153115;27;20051;-81
2022/05/05 08:48:08;;;;;;;1.73;1.50;;;;;;;9.50;26.05;100744.22;5152469;28;20349;-81
2022/05/05 08:50:37;;;;;;;2.42;1.17;;;;;;;9.35;26.14;100747.34;5118954;28;20059;-81
2022/05/05 08:53:05;;;;;;;1.73;1.30;;;;;;;9.47;26.62;100718.94;5137123;27;20047;-81
2022/05/05 08:55:33;;;;;;;2.83;1.27;;;;;;;9.50;26.05;100715.53;5143270;27;20082;-81
2022/05/05 08:58:00;;;;;;;2.72;1.25;;;;;;;9.54;26.17;100717.34;5152859;27;20134;-83
2022/05/05 09:00:28;;;;;;;8.10;3.35;;;;;;;9.66;26.25;100738.47;5154676;27;20054;-81
2022/05/05 09:02:56;;;;;;;4.07;1.70;;;;;;;9.72;26.60;100727.28;5141506;27;20051;-83
2022/05/05 09:05:44;;;;;;;2.80;1.33;;;;;;;9.54;25.51;100730.38;5135112;27;20081;-84
2022/05/05 09:08:13;;;;;;;3.40;1.23;;;;;;;9.58;26.00;100732.22;5133293;28;20073;-84
2022/05/05 09:10:45;;;;;;;2.55;1.27;;;;;;;9.73;26.64;100724.72;5132266;28;20051;-82
2022/05/05 09:13:12;;;;;;;1.65;1.55;;;;;;;9.65;25.75;100708.00;5134074;27;20142;-81
2022/05/05 09:15:43;;;;;;;1.83;1.50;;;;;;;9.67;25.86;100713.28;5133158;28;20059;-84
2022/05/05 09:18:16;;;;;;;3.10;1.98;;;;;;;9.67;26.37;100713.28;5134390;27;20046;-80
2022/05/05 09:20:45;;;;;;;2.33;1.50;;;;;;;10.09;26.18;100725.38;5136114;27;20049;-81
2022/05/05 09:23:36;;;;;;;12.07;6.13;;;;;;;10.40;25.88;100727.75;5134898;27;20504;-81
2022/05/05 09:26:05;;;;;;;3.05;1.83;;;;;;;10.36;25.02;100720.72;5131588;27;20066;-82
2022/05/05 09:28:35;;;;;;;7.10;3.85;;;;;;;10.50;25.19;100727.94;5137522;27;20047;-80
2022/05/05 09:31:06;;;;;;;4.88;1.60;;;;;;;10.57;25.46;100721.97;5145848;27;20066;-82
2022/05/05 09:33:33;;;;;;;;;;;;;;;10.51;25.81;100722.72;5138979;27;20047;-79
2022/05/05 09:36:17;;;;;;;1.40;1.10;;;;;;;10.28;25.45;100735.31;5138054;27;20018;-82
2022/05/05 09:39:04;;;;;;;4.63;1.63;;;;;;;10.15;26.33;100735.97;5137415;27;20055;-83
2022/05/05 09:41:33;;;;;;;4.53;1.38;;;;;;;10.33;25.37;100738.09;5136797;27;20065;-82
2022/05/05 09:44:24;;;;;;;2.15;1.30;;;;;;;10.02;25.63;100704.41;5138094;27;20051;-83
2022/05/05 09:46:51;;;;;;;3.53;1.35;;;;;;;10.09;26.14;100746.28;5137684;27;20054;-81
2022/05/05 09:49:21;;;;;;;1.75;1.25;;;;;;;10.09;25.34;100746.28;5136984;27;20530;-81
2022/05/05 09:57:41;;;;;;;5.03;1.90;;;;;;;10.38;25.05;100718.13;5137494;27;20047;-81
2022/05/05 10:00:31;;;;;;;2.00;1.50;;;;;;;10.43;24.77;100737.38;5136096;27;20055;-81
2022/05/05 10:05:49;;;;;;;1.40;1.20;;;;;;;10.44;24.60;100740.03;5144989;27;20563;-85
2022/05/05 10:08:23;;;;;;;1.35;1.20;;;;;;;10.10;25.42;100711.50;5158733;27;20061;-79
2022/05/05 10:10:52;;;;;;;2.53;1.23;;;;;;;10.00;25.53;100711.34;5157407;27;20537;-84
2022/05/05 10:13:20;;;;;;;1.35;1.10;;;;;;;9.72;25.28;100693.34;5157771;27;20071;-85
2022/05/05 10:15:50;;;;;;;2.03;1.40;;;;;;;9.65;26.13;100741.94;5165956;27;20059;-82
2022/05/05 10:18:28;;;;;;;1.88;1.50;;;;;;;9.48;25.93;100706.78;5161930;27;20046;-81
2022/05/05 10:20:57;;;;;;;1.23;1.13;;;;;;;9.77;25.05;100718.72;5159445;27;20058;-80
2022/05/05 10:23:46;;;;;;;3.22;1.70;;;;;;;10.15;25.10;100734.25;5170696;27;20058;-82
2022/05/05 10:26:13;;;;;;;5.43;1.70;;;;;;;10.22;25.53;100720.44;5167450;27;20055;-82
2022/05/05 10:28:47;;;;;;;3.22;1.40;;;;;;;10.30;25.34;100735.41;5156812;27;20111;-81
2022/05/05 10:31:30;;;;;;;1.88;1.60;;;;;;;10.38;25.50;100724.25;5157962;27;20123;-80
2022/05/05 10:34:07;;;;;;;4.38;1.55;;;;;;;10.13;25.50;100719.38;5158394;27;20107;-79
2022/05/05 10:36:36;;;;;;;4.55;1.50;;;;;;;9.57;25.87;100687.00;5162284;27;20054;-83
2022/05/05 10:39:22;;;;;;;1.88;1.35;;;;;;;9.76;26.08;100747.38;5174233;27;20046;-84
2022/05/05 10:41:52;;;;;;;5.97;1.67;;;;;;;9.94;26.49;100752.09;5164084;27;20105;-84
2022/05/05 10:44:22;;;;;;;3.65;1.70;;;;;;;9.75;25.84;100714.31;5165561;27;20061;-84
2022/05/05 10:47:02;;;;;;;2.28;1.83;;;;;;;10.23;25.70;100736.97;5159719;27;20054;-83
2022/05/05 10:49:32;;;;;;;4.05;1.73;;;;;;;10.35;25.49;100734.66;5158349;27;20107;-86
2022/05/05 10:52:08;;;;;;;4.80;1.50;;;;;;;10.46;24.75;100734.84;5156343;27;20400;-81
2022/05/05 10:54:46;;;;;;;5.70;2.55;;;;;;;10.38;25.04;100719.00;5151043;27;20067;-83
2022/05/05 10:57:26;;;;;;;3.63;2.25;;;;;;;10.50;25.31;100754.06;5129637;27;20138;-82
2022/05/05 11:00:13;;;;;;;4.13;1.40;;;;;;;10.51;25.13;100733.16;5135966;27;20073;-81
2022/05/05 11:03:02;;;;;;;3.67;1.48;;;;;;;10.34;25.80;100737.22;5135491;27;20467;-82
2022/05/05 11:05:32;;;;;;;4.25;1.70;;;;;;;9.69;25.78;100662.88;5135273;27;20138;-81
2022/05/05 11:08:07;;;;;;;5.75;1.70;;;;;;;9.86;26.13;100728.44;5136296;27;20103;-83
2022/05/05 11:10:47;;;;;;;2.67;1.42;;;;;;;9.29;26.14;100628.19;5135756;27;20053;-81
2022/05/05 11:13:45;;;;;;;3.40;1.50;;;;;;;10.09;25.91;100730.63;5136317;27;20057;-83
2022/05/05 11:22:13;;;;;;;7.43;3.40;;;;;;;10.70;25.41;100736.97;5135552;27;20051;-80
2022/05/05 11:24:46;;;;;;;2.78;2.10;;;;;;;11.07;24.99;100751.50;5133904;27;20435;-82
2022/05/05 11:27:20;;;;;;;2.08;1.40;;;;;;;10.82;24.95;100676.22;5134644;27;20046;-81
2022/05/05 11:29:51;;;;;;;3.20;2.08;;;;;;;10.97;24.63;100678.16;5136185;27;20112;-81
2022/05/05 11:32:28;;;;;;;2.67;1.92;;;;;;;11.18;25.28;100735.13;5135742;27;20051;-82
2022/05/05 11:34:56;;;;;;;3.90;1.60;;;;;;;10.92;25.36;100734.72;5134189;27;20047;-80
2022/05/05 11:37:28;;;;;;;4.15;2.10;;;;;;;10.50;25.12;100725.34;5135885;27;20096;-81
2022/05/05 11:39:56;;;;;;;4.70;1.80;;;;;;;10.02;24.90;100653.91;5135564;27;20189;-81
2022/05/05 11:42:27;;;;;;;3.22;1.83;;;;;;;10.53;24.74;100743.66;5135095;27;20066;-84
2022/05/05 11:44:54;;;;;;;2.42;1.48;;;;;;;10.13;24.79;100677.59;5135898;27;20066;-82
2022/05/05 11:47:22;;;;;;;3.40;1.52;;;;;;;10.56;24.74;100733.25;5137459;27;20049;-82
2022/05/05 11:49:52;;;;;;;5.20;1.90;;;;;;;10.28;24.61;100663.94;5147408;27;20050;-83
2022/05/05 11:52:27;;;;;;;4.38;1.60;;;;;;;10.71;24.18;100702.19;5157264;27;20043;-82
2022/05/05 11:54:56;;;;;;;3.60;1.80;;;;;;;10.74;24.60;100728.34;5156416;27;20061;-82
2022/05/05 11:57:40;;;;;;;2.63;1.70;;;;;;;10.77;24.71;100727.50;5139984;27;20082;-82
2022/05/05 12:02:57;;;;;;;2.95;1.70;;;;;;;10.77;24.59;100699.63;5126645;27;20457;-80
2022/05/05 12:05:25;;;;;;;3.72;1.77;;;;;;;11.09;24.76;100748.06;5124300;27;20509;-82
2022/05/05 12:07:54;;;;;;;4.70;1.73;;;;;;;10.86;24.47;100672.75;5124942;27;20035;-80
2022/05/05 12:10:21;;;;;;;3.20;1.75;;;;;;;11.17;24.17;100708.09;5122805;27;20051;-80
2022/05/05 12:13:01;;;;;;;1.95;1.67;;;;;;;11.23;24.14;100704.69;5122608;27;20465;-82
2022/05/05 12:15:29;;;;;;;3.53;1.88;;;;;;;11.30;24.14;100747.50;5133894;27;20131;-83
2022/05/05 12:17:58;;;;;;;9.80;2.00;;;;;;;10.75;24.49;100698.72;5133079;27;20090;-82
2022/05/05 12:20:29;;;;;;;3.75;2.17;;;;;;;10.93;24.98;100729.53;5132840;27;20104;-82
2022/05/05 12:22:57;;;;;;;;;;;;;;;10.78;24.63;100740.59;5133869;27;20054;-82
2022/05/05 12:25:26;;;;;;;3.97;1.63;;;;;;;10.77;24.73;100715.31;5134492;27;20448;-84
2022/05/05 12:27:57;;;;;;;4.05;1.80;;;;;;;10.92;24.43;100732.97;5134106;27;20066;-82
2022/05/05 12:30:33;;;;;;;3.85;1.70;;;;;;;10.99;24.60;100733.94;5149647;27;20111;-81
2022/05/05 12:33:04;;;;;;;2.08;1.70;;;;;;;10.76;24.64;100679.59;5102514;27;20060;-83